Kyzyl, Russia
Current Conditions -  °F | °C
As of 1:00 PM on Monday 22 Dec 2014 (Local Time) from UNAA Reporting Station
Haze Haze  
Wind Chill:   Ceiling: 20000
Heat Index:   Visibility: 1.3mi
Dew Point:   Wind: 0mph
Humidity: 85%   Direction: NA
Pressure: 30.3"   Gusts: NA
Location:  51.71°N, 94.38°E
Report Text: UNAA 220600Z 00000MPS 2200 BR FEW006 BKN200 M13/M15 Q1026 TEMPO0900 FZFG VV002 RMK QFE747 52190055
Loading
Personal Weather Stations






























Interactive Weather Map New forecast layout! Learn more

10-Day Weather Forecast

Advertisements
Track Severe Weather on mobile